createdAt,value
2024-03-14T00:01:08.729Z,99754.50
2024-03-14T00:03:38.214Z,99747.19
2024-03-14T00:06:06.577Z,99742.91
2024-03-14T00:08:34.444Z,99749.25
2024-03-14T00:11:03.044Z,99748.28
2024-03-14T00:13:31.112Z,99749.88
2024-03-14T00:15:58.915Z,99740.53
2024-03-14T00:18:27.056Z,99754.31
2024-03-14T00:20:55.080Z,99748.75
2024-03-14T00:23:24.418Z,99754.34
2024-03-14T00:25:53.184Z,99761.31
2024-03-14T00:28:20.979Z,99759.22
2024-03-14T00:30:50.493Z,99751.97
2024-03-14T00:33:18.369Z,99745.31
2024-03-14T00:35:46.247Z,99757.16
2024-03-14T00:38:15.250Z,99754.38
2024-03-14T00:40:44.232Z,99739.81
2024-03-14T00:43:15.478Z,99744.09
2024-03-14T00:45:43.659Z,99748.94
2024-03-14T00:48:12.305Z,99744.88
2024-03-14T00:50:42.344Z,99739.34
2024-03-14T00:53:10.252Z,99736.19
2024-03-14T00:55:38.178Z,99740.34
2024-03-14T01:08:56.650Z,99738.94
2024-03-14T01:11:24.595Z,99738.84
2024-03-14T01:13:52.782Z,99729.34
2024-03-14T01:16:20.748Z,99724.50
2024-03-14T01:18:51.214Z,99727.47
2024-03-14T01:21:21.432Z,99721.00
2024-03-14T01:23:49.927Z,99723.50
2024-03-14T01:26:17.735Z,99723.56
2024-03-14T01:28:45.583Z,99710.38
2024-03-14T01:31:13.630Z,99713.03
2024-03-14T01:33:41.564Z,99714.53
2024-03-14T01:36:09.679Z,99717.13
2024-03-14T01:38:37.736Z,99719.44
2024-03-14T01:41:06.617Z,99722.38
2024-03-14T01:43:34.583Z,99724.03
2024-03-14T01:46:03.671Z,99716.06
2024-03-14T01:48:31.573Z,99710.72
2024-03-14T01:50:59.451Z,99714.63
2024-03-14T01:53:27.368Z,99707.97
2024-03-14T01:55:55.221Z,99703.06
2024-03-14T01:58:27.539Z,99705.81
2024-03-14T02:00:55.383Z,99706.44
2024-03-14T02:03:23.701Z,99702.88
2024-03-14T02:05:51.876Z,99700.63
2024-03-14T02:08:21.224Z,99697.81
2024-03-14T02:10:49.023Z,99694.28
2024-03-14T02:13:16.798Z,99685.97
2024-03-14T02:15:45.137Z,99693.34
2024-03-14T02:18:14.320Z,99688.94
2024-03-14T02:20:42.232Z,99687.38
2024-03-14T02:23:10.061Z,99682.03
2024-03-14T02:25:40.321Z,99682.78
2024-03-14T02:28:08.206Z,99682.13
2024-03-14T02:30:36.118Z,99686.97
2024-03-14T02:33:04.392Z,99688.94
2024-03-14T02:35:32.526Z,99683.25
2024-03-14T02:38:00.396Z,99681.66
2024-03-14T02:40:29.441Z,99677.91
2024-03-14T02:42:57.265Z,99676.53
2024-03-14T02:45:27.999Z,99682.56
2024-03-14T02:47:56.046Z,99666.09
2024-03-14T02:50:23.976Z,99672.75
2024-03-14T02:52:51.803Z,99673.47
2024-03-14T02:55:19.591Z,99682.34
2024-03-14T02:57:47.533Z,99677.31
2024-03-14T03:00:18.695Z,99668.28
2024-03-14T03:02:46.678Z,99669.56
2024-03-14T03:05:14.851Z,99663.50
2024-03-14T03:07:45.045Z,99660.38
2024-03-14T03:10:13.872Z,99657.16
2024-03-14T03:12:41.756Z,99653.44
2024-03-14T03:15:10.623Z,99658.81
2024-03-14T03:17:40.193Z,99662.41
2024-03-14T03:20:11.587Z,99666.19
2024-03-14T03:22:57.640Z,99658.28
2024-03-14T03:25:25.812Z,99650.00
2024-03-14T03:27:52.962Z,99657.78
2024-03-14T03:30:21.140Z,99646.56
2024-03-14T03:32:48.107Z,99648.84
2024-03-14T03:35:20.920Z,99650.66
2024-03-14T03:37:49.047Z,99648.50
2024-03-14T03:40:23.367Z,99636.31
2024-03-14T03:42:52.905Z,99637.44
2024-03-14T03:45:21.446Z,99632.09
2024-03-14T03:47:52.711Z,99630.28
2024-03-14T03:50:19.547Z,99626.94
2024-03-14T03:52:47.791Z,99626.44
2024-03-14T03:55:18.162Z,99627.00
2024-03-14T03:57:46.433Z,99617.41
2024-03-14T04:00:40.409Z,99616.34
2024-03-14T04:03:10.997Z,99616.28
2024-03-14T04:05:39.392Z,99614.34
2024-03-14T04:08:06.842Z,99606.25
2024-03-14T04:10:35.013Z,99613.47
2024-03-14T04:13:01.925Z,99615.47
2024-03-14T04:15:30.758Z,99610.25
2024-03-14T04:17:58.906Z,99613.94
2024-03-14T04:20:28.510Z,99612.03
2024-03-14T04:22:56.377Z,99609.13
2024-03-14T04:25:24.252Z,99614.31
2024-03-14T04:28:38.388Z,99600.41
2024-03-14T04:31:54.857Z,99611.59
2024-03-14T04:35:10.521Z,99613.25
2024-03-14T04:38:58.600Z,99609.44
2024-03-14T05:18:23.403Z,99609.13
2024-03-14T05:36:51.776Z,99586.28
2024-03-14T05:43:47.120Z,99588.34
2024-03-14T05:46:24.621Z,99590.78
2024-03-14T05:48:59.738Z,99588.63
2024-03-14T05:51:30.278Z,99593.84
2024-03-14T05:54:07.234Z,99587.59
2024-03-14T05:56:44.292Z,99587.00
2024-03-14T05:59:16.665Z,99586.16
2024-03-14T06:01:59.636Z,99595.44
2024-03-14T06:04:43.642Z,99593.25
2024-03-14T06:07:13.291Z,99588.97
2024-03-14T06:09:44.994Z,99596.38
2024-03-14T06:12:14.339Z,99597.97
2024-03-14T06:14:47.290Z,99595.03
2024-03-14T06:17:19.067Z,99591.53
2024-03-14T06:19:53.710Z,99586.22
2024-03-14T06:22:25.168Z,99583.38
2024-03-14T06:25:07.513Z,99583.28
2024-03-14T06:27:50.471Z,99576.28
2024-03-14T06:30:59.873Z,99578.16
2024-03-14T06:36:28.996Z,99589.19
2024-03-14T06:39:12.924Z,99586.13
2024-03-14T06:42:02.294Z,99589.75
2024-03-14T06:44:30.453Z,99589.53
2024-03-14T06:47:11.060Z,99582.22
2024-03-14T06:49:44.170Z,99593.59
2024-03-14T06:52:20.856Z,99582.25
2024-03-14T06:55:07.523Z,99578.72
2024-03-14T06:57:36.210Z,99581.91
2024-03-14T07:00:13.093Z,99571.22
2024-03-14T07:02:42.186Z,99567.06
2024-03-14T07:05:11.282Z,99569.78
2024-03-14T07:07:59.633Z,99561.75
2024-03-14T07:11:12.598Z,99560.66
2024-03-14T07:13:43.806Z,99566.06
2024-03-14T07:16:14.802Z,99562.25
2024-03-14T07:18:56.501Z,99560.38
2024-03-14T07:21:27.515Z,99564.53
2024-03-14T07:23:57.974Z,99579.69
2024-03-14T07:26:33.690Z,99568.22
2024-03-14T07:29:14.122Z,99569.59
2024-03-14T07:32:00.140Z,99576.72
2024-03-14T07:34:29.872Z,99576.75
2024-03-14T07:37:09.825Z,99570.31
2024-03-14T07:39:39.073Z,99577.56
2024-03-14T07:42:07.877Z,99580.19
2024-03-14T07:44:38.535Z,99579.41
2024-03-14T07:47:10.630Z,99583.28
2024-03-14T07:49:41.169Z,99580.31
2024-03-14T07:52:12.941Z,99578.16
2024-03-14T07:54:42.803Z,99580.88
2024-03-14T07:57:20.666Z,99583.84
2024-03-14T08:02:59.067Z,99589.59
2024-03-14T08:05:35.858Z,99585.41
2024-03-14T08:08:40.392Z,99589.03
2024-03-14T08:14:42.346Z,99602.44
2024-03-14T08:17:26.361Z,99598.19
2024-03-14T08:30:41.264Z,99599.03
2024-03-14T08:33:37.284Z,99609.53
2024-03-14T08:46:38.932Z,99602.66
2024-03-14T08:49:07.656Z,99599.31
2024-03-14T08:51:39.457Z,99597.78
2024-03-14T08:54:15.296Z,99601.38
2024-03-14T08:56:43.207Z,99607.13
2024-03-14T08:59:18.244Z,99609.44
2024-03-14T09:01:47.362Z,99608.28
2024-03-14T09:04:24.246Z,99604.41
2024-03-14T09:06:56.855Z,99600.34
2024-03-14T09:09:39.664Z,99604.66
2024-03-14T09:12:18.209Z,99606.94
2024-03-14T09:15:11.523Z,99593.28
2024-03-14T09:17:45.707Z,99601.59
2024-03-14T09:20:18.275Z,99594.47
2024-03-14T09:22:46.887Z,99597.63
2024-03-14T09:25:16.862Z,99591.56
2024-03-14T09:27:57.456Z,99595.25
2024-03-14T09:30:28.303Z,99594.94
2024-03-14T09:32:58.303Z,99598.88
2024-03-14T09:35:34.784Z,99597.06
2024-03-14T09:38:30.655Z,99585.59
2024-03-14T09:44:16.690Z,99593.31
2024-03-14T09:46:48.295Z,99600.69
2024-03-14T09:49:17.361Z,99586.72
2024-03-14T09:51:46.384Z,99585.41
2024-03-14T09:54:16.318Z,99582.59
2024-03-14T09:56:50.801Z,99591.72
2024-03-14T09:59:19.400Z,99577.81
2024-03-14T10:01:47.856Z,99595.59
2024-03-14T10:04:17.526Z,99595.38
2024-03-14T10:06:54.647Z,99585.00
2024-03-14T10:09:28.114Z,99588.13
2024-03-14T10:12:03.908Z,99588.38
2024-03-14T10:14:43.286Z,99581.69
2024-03-14T10:17:11.835Z,99578.28
2024-03-14T10:19:39.689Z,99574.22
2024-03-14T10:22:08.178Z,99579.47
2024-03-14T10:24:36.421Z,99580.97
2024-03-14T10:27:06.439Z,99580.97
2024-03-14T10:29:34.534Z,99567.44
2024-03-14T10:32:05.671Z,99572.44
2024-03-14T10:34:34.574Z,99575.00
2024-03-14T10:37:02.689Z,99564.53
2024-03-14T10:39:30.914Z,99561.03
2024-03-14T10:41:58.820Z,99566.06
2024-03-14T10:44:26.830Z,99550.44
2024-03-14T10:46:54.829Z,99556.91
2024-03-14T10:49:23.605Z,99557.09
2024-03-14T10:51:52.992Z,99557.63
2024-03-14T10:54:23.070Z,99546.63
2024-03-14T10:56:50.979Z,99547.00
2024-03-14T10:59:21.166Z,99546.53
2024-03-14T11:01:54.252Z,99531.50
2024-03-14T11:04:22.366Z,99538.50
2024-03-14T11:06:50.648Z,99537.78
2024-03-14T11:09:19.017Z,99534.00
2024-03-14T11:11:54.758Z,99532.19
2024-03-14T11:14:23.046Z,99529.75
2024-03-14T11:16:50.834Z,99521.88
2024-03-14T11:19:18.914Z,99520.81
2024-03-14T11:21:47.001Z,99511.34
2024-03-14T11:24:14.972Z,99515.22
2024-03-14T11:26:44.845Z,99509.97
2024-03-14T11:32:57.759Z,99506.19
2024-03-14T11:36:45.446Z,99500.78
2024-03-14T11:39:17.577Z,99495.38
2024-03-14T11:41:46.921Z,99489.44
2024-03-14T11:44:16.689Z,99479.09
2024-03-14T11:46:45.586Z,99475.78
2024-03-14T11:49:17.284Z,99471.84
2024-03-14T11:51:48.847Z,99471.44
2024-03-14T11:54:19.248Z,99467.06
2024-03-14T11:56:58.250Z,99467.44
2024-03-14T11:59:26.045Z,99462.38
2024-03-14T12:01:57.212Z,99457.34
2024-03-14T12:04:26.568Z,99451.19
2024-03-14T12:06:54.450Z,99447.06
2024-03-14T12:09:24.638Z,99447.41
2024-03-14T12:11:52.650Z,99446.78
2024-03-14T12:14:20.684Z,99441.31
2024-03-14T12:16:49.748Z,99446.19
2024-03-14T12:19:17.835Z,99438.88
2024-03-14T12:21:46.468Z,99425.91
2024-03-14T12:24:14.878Z,99424.41
2024-03-14T12:26:43.493Z,99416.81
2024-03-14T12:29:11.456Z,99412.84
2024-03-14T12:31:39.379Z,99411.75
2024-03-14T12:34:07.884Z,99403.94
2024-03-14T12:39:21.878Z,99387.50
2024-03-14T12:41:51.473Z,99380.75
2024-03-14T12:44:25.552Z,99371.16
2024-03-14T12:46:54.231Z,99375.13
2024-03-14T12:49:26.557Z,99365.84
2024-03-14T12:51:58.386Z,99364.41
2024-03-14T12:54:36.121Z,99368.47
2024-03-14T12:57:07.335Z,99362.16
2024-03-14T12:59:40.668Z,99356.38
2024-03-14T13:02:11.964Z,99350.38
2024-03-14T13:04:44.156Z,99337.25
2024-03-14T13:07:20.273Z,99340.84
2024-03-14T13:10:12.368Z,99331.75
2024-03-14T13:12:42.001Z,99330.91
2024-03-14T13:15:19.467Z,99328.09
2024-03-14T13:17:49.472Z,99322.41
2024-03-14T13:20:20.073Z,99327.03
2024-03-14T13:22:51.104Z,99326.78
2024-03-14T13:25:19.476Z,99323.81
2024-03-14T13:27:48.030Z,99325.22
2024-03-14T13:30:21.158Z,99325.19
2024-03-14T13:32:57.808Z,99312.25
2024-03-14T13:35:32.366Z,99310.41
2024-03-14T13:38:00.980Z,99314.75
2024-03-14T13:40:32.617Z,99314.72
2024-03-14T13:43:16.908Z,99305.75
2024-03-14T13:45:53.665Z,99302.16
2024-03-14T13:48:22.215Z,99298.44
2024-03-14T13:50:51.703Z,99297.16
2024-03-14T13:53:32.207Z,99290.88
2024-03-14T13:56:01.742Z,99285.44
2024-03-14T13:58:39.871Z,99288.66
2024-03-14T14:01:23.402Z,99286.22
2024-03-14T14:04:01.002Z,99290.50
2024-03-14T14:06:33.970Z,99294.94
2024-03-14T14:09:07.984Z,99294.72
2024-03-14T14:11:47.182Z,99282.75
2024-03-14T14:14:20.041Z,99272.41
2024-03-14T14:16:50.393Z,99273.84
2024-03-14T14:19:22.470Z,99278.81
2024-03-14T14:21:52.882Z,99268.19
2024-03-14T14:24:25.132Z,99268.91
2024-03-14T14:26:58.515Z,99261.81
2024-03-14T14:29:27.215Z,99260.44
2024-03-14T14:31:55.457Z,99259.31
2024-03-14T14:34:23.928Z,99255.75
2024-03-14T14:36:52.269Z,99241.56
2024-03-14T14:39:20.592Z,99241.28
2024-03-14T14:41:48.367Z,99242.09
2024-03-14T14:44:16.689Z,99230.91
2024-03-14T14:46:45.068Z,99231.91
2024-03-14T14:49:14.804Z,99235.84
2024-03-14T14:51:43.663Z,99232.31
2024-03-14T14:54:11.514Z,99226.97
2024-03-14T14:56:45.038Z,99222.47
2024-03-14T14:59:13.235Z,99217.06
2024-03-14T15:01:41.073Z,99206.59
2024-03-14T15:04:08.920Z,99208.34
2024-03-14T15:06:39.139Z,99214.31
2024-03-14T15:09:10.257Z,99196.19
2024-03-14T15:11:38.731Z,99190.88
2024-03-14T15:14:06.719Z,99186.44
2024-03-14T15:16:36.803Z,99186.16
2024-03-14T15:19:08.788Z,99184.59
2024-03-14T15:21:46.689Z,99182.34
2024-03-14T15:24:21.740Z,99173.16
2024-03-14T15:26:56.598Z,99167.38
2024-03-14T15:29:25.302Z,99167.66
2024-03-14T15:31:58.174Z,99168.38
2024-03-14T15:34:30.053Z,99165.31
2024-03-14T15:36:58.472Z,99173.50
2024-03-14T15:39:33.119Z,99170.31
2024-03-14T15:42:30.545Z,99173.81
2024-03-14T15:45:09.459Z,99163.19
2024-03-14T15:47:41.264Z,99158.31
2024-03-14T15:50:17.887Z,99164.72
2024-03-14T15:52:52.409Z,99174.47
2024-03-14T15:55:29.929Z,99168.69
2024-03-14T15:58:12.581Z,99172.81
2024-03-14T16:00:53.493Z,99166.75
2024-03-14T16:03:27.487Z,99165.06
2024-03-14T16:06:00.522Z,99159.88
2024-03-14T16:08:55.025Z,99159.03
2024-03-14T16:11:32.360Z,99178.41
2024-03-14T16:14:05.004Z,99176.91
2024-03-14T16:16:42.092Z,99177.59
2024-03-14T16:19:27.611Z,99167.66
2024-03-14T16:22:16.280Z,99168.81
2024-03-14T16:25:00.742Z,99159.34
2024-03-14T16:27:36.471Z,99166.72
2024-03-14T16:30:05.656Z,99164.34
2024-03-14T16:32:38.230Z,99166.34
2024-03-14T16:35:17.346Z,99174.16
2024-03-14T16:37:45.903Z,99174.00
2024-03-14T16:40:13.898Z,99173.09
2024-03-14T16:42:41.775Z,99161.34
2024-03-14T16:45:09.802Z,99166.44
2024-03-14T16:47:37.687Z,99160.06
2024-03-14T16:50:05.940Z,99164.97
2024-03-14T16:52:34.685Z,99162.16
2024-03-14T16:55:02.506Z,99156.59
2024-03-14T16:57:30.365Z,99159.38
2024-03-14T16:59:58.370Z,99159.03
2024-03-14T17:02:26.866Z,99157.38
2024-03-14T17:04:55.590Z,99152.91
2024-03-14T17:07:25.621Z,99154.94
2024-03-14T17:09:53.447Z,99156.41
2024-03-14T17:12:21.333Z,99156.22
2024-03-14T17:14:50.905Z,99160.59
2024-03-14T17:17:21.836Z,99171.59
2024-03-14T17:19:50.790Z,99162.03
2024-03-14T17:22:18.841Z,99161.41
2024-03-14T17:24:47.375Z,99166.72
2024-03-14T17:27:15.343Z,99169.94
2024-03-14T17:29:43.597Z,99174.06
2024-03-14T17:32:11.429Z,99170.69
2024-03-14T17:34:40.020Z,99178.41
2024-03-14T17:37:07.910Z,99173.38
2024-03-14T17:39:35.834Z,99166.72
2024-03-14T17:42:03.770Z,99171.34
2024-03-14T17:44:32.061Z,99164.63
2024-03-14T17:47:00.137Z,99167.22
2024-03-14T17:49:30.973Z,99165.75
2024-03-14T17:51:59.257Z,99168.34
2024-03-14T17:54:27.238Z,99175.44
2024-03-14T17:57:09.701Z,99182.44
2024-03-14T17:59:38.528Z,99178.41
2024-03-14T18:02:13.910Z,99181.19
2024-03-14T18:04:50.149Z,99185.03
2024-03-14T18:07:18.029Z,99185.38
2024-03-14T18:09:46.072Z,99187.06
2024-03-14T18:12:14.144Z,99195.38
2024-03-14T18:14:42.170Z,99188.28
2024-03-14T18:17:24.028Z,99187.44
2024-03-14T18:19:55.207Z,99192.34
2024-03-14T18:22:30.361Z,99192.75
2024-03-14T18:25:03.977Z,99193.97
2024-03-14T19:20:46.915Z,99168.94
2024-03-14T19:23:51.676Z,99168.13
2024-03-14T19:26:43.130Z,99165.91
2024-03-14T19:36:10.584Z,99158.47
2024-03-14T19:38:42.617Z,99158.16
2024-03-14T19:41:11.852Z,99156.34
2024-03-14T19:43:40.578Z,99152.16
2024-03-14T19:46:09.170Z,99156.34
2024-03-14T19:48:43.855Z,99152.47
2024-03-14T19:51:13.053Z,99152.22
2024-03-14T19:53:40.994Z,99150.19
2024-03-14T19:56:11.350Z,99149.53
2024-03-14T19:58:41.389Z,99150.03
2024-03-14T20:01:09.406Z,99153.19
2024-03-14T20:03:38.032Z,99156.66
2024-03-14T20:06:06.835Z,99152.88
2024-03-14T20:08:39.064Z,99151.47
2024-03-14T20:11:09.190Z,99151.66
2024-03-14T20:13:39.009Z,99156.84
2024-03-14T20:16:07.122Z,99153.06
2024-03-14T20:18:35.167Z,99147.84
2024-03-14T20:21:06.164Z,99139.94
2024-03-14T20:23:40.362Z,99137.31
2024-03-14T20:26:10.270Z,99143.72
2024-03-14T20:28:38.482Z,99136.34
2024-03-14T20:31:06.568Z,99142.31
2024-03-14T20:33:34.822Z,99126.44
2024-03-14T20:36:07.918Z,99140.00
2024-03-14T20:38:36.070Z,99135.28
2024-03-14T20:41:06.984Z,99129.91
2024-03-14T20:43:42.108Z,99129.09
2024-03-14T20:46:11.785Z,99121.69
2024-03-14T20:48:39.825Z,99112.41
2024-03-14T20:51:07.735Z,99112.22
2024-03-14T20:53:35.894Z,99105.31
2024-03-14T20:56:08.398Z,99109.06
2024-03-14T20:58:41.661Z,99105.88
2024-03-14T21:01:14.137Z,99103.97
2024-03-14T21:03:48.798Z,99102.97
2024-03-14T21:06:27.357Z,99103.94
2024-03-14T21:08:57.216Z,99103.56
2024-03-14T21:11:25.722Z,99103.56
2024-03-14T21:13:53.643Z,99109.09
2024-03-14T21:16:23.306Z,99108.00
2024-03-14T21:18:51.820Z,99106.34
2024-03-14T21:21:21.864Z,99105.75
2024-03-14T21:23:49.907Z,99103.09
2024-03-14T21:26:17.888Z,99111.75
2024-03-14T21:28:45.693Z,99108.75
2024-03-14T21:31:14.730Z,99104.94
2024-03-14T21:33:42.841Z,99107.00
2024-03-14T21:36:11.740Z,99101.13
2024-03-14T21:38:39.634Z,99094.84
2024-03-14T21:41:07.616Z,99100.19
2024-03-14T21:43:36.650Z,99106.00
2024-03-14T21:46:06.452Z,99102.19
2024-03-14T21:48:34.482Z,99102.03
2024-03-14T21:51:03.621Z,99103.47
2024-03-14T21:53:31.895Z,99102.69
2024-03-14T21:56:00.057Z,99107.16
2024-03-14T21:58:32.025Z,99109.16
2024-03-14T22:01:07.126Z,99101.44
2024-03-14T22:03:37.273Z,99103.97
2024-03-14T22:06:09.115Z,99099.09
2024-03-14T22:08:37.337Z,99102.22
2024-03-14T22:11:05.433Z,99100.19
2024-03-14T22:13:33.396Z,99101.75
2024-03-14T22:16:01.348Z,99102.28
2024-03-14T22:18:32.396Z,99099.59
2024-03-14T22:21:00.228Z,99099.59
2024-03-14T22:23:28.044Z,99105.75
2024-03-14T22:25:58.414Z,99112.09
2024-03-14T22:28:26.192Z,99109.25
2024-03-14T22:31:00.055Z,99099.72
2024-03-14T22:33:35.609Z,99101.63
2024-03-14T22:36:04.649Z,99106.97
2024-03-14T22:38:32.740Z,99095.78
2024-03-14T22:41:07.408Z,99096.69
2024-03-14T22:43:38.696Z,99101.91
2024-03-14T22:46:06.520Z,99098.28
2024-03-14T22:48:34.538Z,99099.53
2024-03-14T22:51:02.567Z,99097.00
2024-03-14T22:53:32.182Z,99103.81
2024-03-14T22:56:00.442Z,99099.06
2024-03-14T22:58:29.014Z,99100.50
2024-03-14T23:00:58.510Z,99103.78
2024-03-14T23:03:29.138Z,99102.22
2024-03-14T23:05:57.142Z,99103.97
2024-03-14T23:08:26.611Z,99098.81
2024-03-14T23:10:54.779Z,99095.16
2024-03-14T23:13:25.811Z,99093.13
2024-03-14T23:15:54.054Z,99099.94
2024-03-14T23:18:22.091Z,99099.59
2024-03-14T23:20:52.820Z,99087.88
2024-03-14T23:23:21.167Z,99091.69
2024-03-14T23:25:49.359Z,99081.88
2024-03-14T23:28:18.481Z,99087.56
2024-03-14T23:30:50.097Z,99087.56
2024-03-14T23:33:18.609Z,99087.41
2024-03-14T23:35:47.666Z,99086.94
2024-03-14T23:38:15.556Z,99081.56
2024-03-14T23:40:43.347Z,99079.84
2024-03-14T23:43:14.735Z,99084.59
2024-03-14T23:45:42.928Z,99074.63
2024-03-14T23:48:13.218Z,99071.63
2024-03-14T23:50:41.143Z,99079.81
2024-03-14T23:53:08.973Z,99074.16
2024-03-14T23:55:38.150Z,99076.50
2024-03-14T23:58:07.346Z,99071.63
